• Join FlightAware (Why Join?)
  • Login
  • US Flag 
05:28AM EDT


 

Airport Tracker/Info


-or-


 

Live Flight TrackerFlight Track Log ✈ EGF2787 ✈ 05-Jul-2013 ✈ KORD - KICT

Flight Track Log - Related Links

Times and Time Zones

All times are in EDT time to prevent confusion due to time zone crossing. See the EGF2787 flight status page for this flight to view local times or setup timezone preferences in your user account.

Time Position Orientation Groundspeed Altitude Reporting Facility
EDT Latitude Longitude Course Direction KTS MPH feet Rate Location/Type
12:37PM 41.9667 -87.9667 253° West 186 214 2,600  Level Chicago TRACON
12:38PM 41.9667 -88.0500 270° West 223 257 4,800 1,980 Climbing Chicago TRACON
12:39PM 41.8841 -88.3129 255° West  Level FlightAware Approximate
12:39PM 41.9600 -88.1542 265° West 230 265 7,200  Level Chicago Center
12:40PM 41.8411 -88.4446 255° West  Level FlightAware Approximate
12:40PM 41.9592 -88.2544 269° West 258 297 9,300  Level Chicago Center
12:41PM 41.8113 -88.5835 254° West  Level FlightAware Approximate
12:42PM 41.7806 -88.7219 253° West  Level FlightAware Approximate
12:42PM 41.9453 -88.3828 262° West 286 329 12,000  Level Chicago Center
12:43PM 41.7503 -88.8576 253° West  Level FlightAware Approximate
12:43PM 41.9161 -88.4883 250° West 302 348 13,300  Level Chicago Center
12:44PM 41.8836 -88.6067 250° West 333 383 14,800 1,380 Climbing Chicago Center
12:45PM 41.8519 -88.7278 251° West 346 398 16,200 1,380 Climbing Chicago Center
12:46PM 41.8183 -88.8497 250° West 352 405 17,700 1,440 Climbing Chicago Center
12:47PM 41.7783 -88.9989 250° West 358 412 19,200 1,380 Climbing Chicago Center
12:48PM 41.7442 -89.1253 250° West 362 417 20,600 1,380 Climbing Chicago Center
12:49PM 41.7092 -89.2536 250° West 368 423 22,100 1,380 Climbing Chicago Center
12:50PM 41.6756 -89.3808 251° West 368 423 23,500 1,320 Climbing Chicago Center
12:51PM 41.6400 -89.5089 250° West 370 426 24,900 1,440 Climbing Chicago Center
12:52PM 41.6022 -89.6481 250° West 368 423 26,500 1,440 Climbing Chicago Center
12:53PM 41.5667 -89.7731 249° West 363 418 27,900 1,380 Climbing Chicago Center
12:54PM 41.5331 -89.8964 250° West 357 411 29,400 1,320 Climbing Chicago Center
12:55PM 41.4911 -90.0458 250° West 360 414 30,700 1,020 Climbing Chicago Center
12:56PM 41.4547 -90.1728 249° West 367 422 31,600 900 Climbing Chicago Center
12:57PM 41.4178 -90.3053 250° West 380 437 32,600 900 Climbing Chicago Center
12:58PM 41.3794 -90.4403 249° West 390 449 33,500 840 Climbing Chicago Center
12:59PM 41.3397 -90.5775 249° West 397 457 34,400 900 Climbing Chicago Center
01:00PM 41.2767 -90.7394 243° Southwest 411 473 35,400 720 Climbing Chicago Center
01:01PM 41.2150 -90.8689 238° Southwest 414 476 36,000 240 Climbing Chicago Center
01:02PM 41.1519 -91.0025 238° Southwest 426 490 36,000  Level Chicago Center
01:03PM 41.0847 -91.1444 238° Southwest 453 521 36,000  Level Chicago Center
01:04PM 41.0192 -91.2831 238° Southwest 447 514 36,000  Level Chicago Center
01:05PM 40.9414 -91.4458 238° Southwest 454 522 36,000  Level Chicago Center
01:06PM 40.8739 -91.5867 238° Southwest 458 527 36,000  Level Chicago Center
01:07PM 40.8047 -91.7314 238° Southwest 466 536 36,000  Level Chicago Center
01:08PM 40.7336 -91.8767 237° Southwest 474 545 36,000  Level Chicago Center
01:09PM 40.6647 -92.0219 238° Southwest 473 544 36,000  Level Chicago Center
01:10PM 40.5933 -92.1653 237° Southwest 472 543 36,000  Level Kansas City Center
01:11PM 40.5228 -92.3094 237° Southwest 473 544 36,000  Level Kansas City Center
01:12PM 40.4600 -92.4386 237° Southwest 471 542 36,000  Level Kansas City Center
01:13PM 40.3764 -92.6122 238° Southwest 470 541 36,000  Level Kansas City Center
01:14PM 40.3056 -92.7583 238° Southwest 472 543 36,000  Level Kansas City Center
01:15PM 40.2322 -92.8928 234° Southwest 472 543 36,000  Level Kansas City Center
01:16PM 40.1522 -93.0553 237° Southwest 474 545 36,000  Level Kansas City Center
01:17PM 40.0869 -93.1817 236° Southwest 472 543 36,000  Level Kansas City Center
01:18PM 40.0025 -93.3519 237° Southwest 473 544 36,000  Level Kansas City Center
01:19PM 39.9283 -93.4919 235° Southwest 473 544 36,000  Level Kansas City Center
01:21PM 39.8603 -93.6367 239° Southwest 472 543 36,000  Level Kansas City Center
01:22PM 39.7831 -93.7836 236° Southwest 471 542 36,000  Level Kansas City Center
01:23PM 39.7000 -93.9411 236° Southwest 471 542 36,000  Level Kansas City Center
01:24PM 39.6308 -94.0775 237° Southwest 473 544 36,000  Level Kansas City Center
01:25PM 39.5608 -94.2119 236° Southwest 470 541 36,000  Level Kansas City Center
01:26PM 39.4794 -94.3703 236° Southwest 472 543 36,000  Level Kansas City Center
01:27PM 39.4086 -94.5050 236° Southwest 472 543 36,000  Level Kansas City Center
01:28PM 39.3256 -94.6642 236° Southwest 477 549 36,000  Level Kansas City Center
01:29PM 39.2519 -94.8028 236° Southwest 484 557 36,000  Level Kansas City Center
01:30PM 39.1744 -94.9708 239° Southwest 484 557 36,000  Level Kansas City Center
01:31PM 39.1019 -95.1211 238° Southwest 482 555 36,000 -60 Level Kansas City Center
01:32PM 39.0311 -95.2700 239° Southwest 488 562 35,900 -540 Descending Kansas City Center
01:33PM 38.9569 -95.4264 239° Southwest 490 564 34,900 -1,020 Descending Kansas City Center
01:34PM 38.8889 -95.5683 238° Southwest 486 559 33,900 -1,440 Descending Kansas City Center
01:35PM 38.8103 -95.7325 238° Southwest 481 554 32,000 -1,860 Descending Kansas City Center
01:36PM 38.7417 -95.8719 238° Southwest 483 556 30,100 -2,100 Descending Kansas City Center
01:37PM 38.6619 -96.0367 238° Southwest 487 560 27,700 -2,400 Descending Kansas City Center
01:38PM 38.5942 -96.1719 237° Southwest 472 543 25,300 -2,340 Descending Kansas City Center
01:39PM 38.5283 -96.3069 238° Southwest 467 537 22,900 -2,460 Descending Kansas City Center
01:41PM 38.4337 -96.4603 241° Southwest  Level FlightAware Approximate
01:41PM 38.3897 -96.5864 241° Southwest 433 498 17,800  Level Kansas City Center
01:42PM 38.3283 -96.7108 238° Southwest 417 480 16,700 -1,020 Descending Kansas City Center
01:43PM 38.2886 -96.7828 235° Southwest 405 466 16,200 -960 Descending Kansas City Center
01:44PM 38.2253 -96.9236 240° Southwest 397 457 15,100 -1,800 Descending Kansas City Center
01:45PM 38.1539 -97.0097 223° Southwest 340 391 12,500 -2,460 Descending Kansas City Center
01:46PM 38.0781 -97.0700 212° Southwest 308 354 10,200 -1,980 Descending Kansas City Center
01:47PM 38.0083 -97.1289 214° Southwest 267 307 8,400 -1,560 Descending Kansas City Center
01:48PM 37.9483 -97.1811 214° Southwest 259 298 6,900 -1,320 Descending Kansas City Center
01:49PM 37.8939 -97.2267 213° Southwest 231 266 5,800 -1,260 Descending Kansas City Center
01:50PM 37.8550 -97.2781 226° Southwest 220 253 4,500 -1,500 Descending Kansas City Center